sensor_id;sensor_type;location;lat;lon;timestamp;pressure;altitude;pressure_sealevel;temperature;humidity
10060;BME280;5069;49.306;8.636;2023-07-30T00:00:51;99947.00;;;20.87;100.00
10060;BME280;5069;49.306;8.636;2023-07-30T00:03:53;99942.63;;;20.86;100.00
10060;BME280;5069;49.306;8.636;2023-07-30T00:06:54;99950.47;;;20.78;100.00
10060;BME280;5069;49.306;8.636;2023-07-30T00:09:55;99953.16;;;20.78;100.00
10060;BME280;5069;49.306;8.636;2023-07-30T00:12:57;99944.38;;;20.76;100.00
10060;BME280;5069;49.306;8.636;2023-07-30T00:15:58;99951.91;;;20.82;100.00
10060;BME280;5069;49.306;8.636;2023-07-30T00:19:00;99956.03;;;20.86;100.00
10060;BME280;5069;49.306;8.636;2023-07-30T00:22:02;99965.03;;;20.85;100.00
10060;BME280;5069;49.306;8.636;2023-07-30T00:25:04;99967.97;;;20.82;100.00
10060;BME280;5069;49.306;8.636;2023-07-30T00:28:05;99973.06;;;20.85;100.00
10060;BME280;5069;49.306;8.636;2023-07-30T00:31:07;99969.91;;;20.80;100.00
10060;BME280;5069;49.306;8.636;2023-07-30T00:34:08;99972.00;;;20.77;100.00
10060;BME280;5069;49.306;8.636;2023-07-30T00:37:10;99973.47;;;20.70;100.00
10060;BME280;5069;49.306;8.636;2023-07-30T00:40:11;99979.97;;;20.67;100.00
10060;BME280;5069;49.306;8.636;2023-07-30T00:43:13;99975.34;;;20.58;100.00
10060;BME280;5069;49.306;8.636;2023-07-30T00:46:15;99984.09;;;20.60;100.00
10060;BME280;5069;49.306;8.636;2023-07-30T00:49:16;99984.50;;;20.55;100.00
10060;BME280;5069;49.306;8.636;2023-07-30T00:52:20;99983.88;;;20.52;100.00
10060;BME280;5069;49.306;8.636;2023-07-30T00:55:22;99986.31;;;20.55;100.00
10060;BME280;5069;49.306;8.636;2023-07-30T00:58:24;99987.66;;;20.49;100.00
10060;BME280;5069;49.306;8.636;2023-07-30T01:01:26;99994.84;;;20.38;100.00
10060;BME280;5069;49.306;8.636;2023-07-30T01:04:27;100003.75;;;20.38;100.00
10060;BME280;5069;49.306;8.636;2023-07-30T01:07:30;99999.72;;;20.33;100.00
10060;BME280;5069;49.306;8.636;2023-07-30T01:10:32;99994.59;;;20.41;100.00
10060;BME280;5069;49.306;8.636;2023-07-30T01:13:35;99999.72;;;20.33;100.00
10060;BME280;5069;49.306;8.636;2023-07-30T01:16:36;99999.59;;;20.34;100.00
10060;BME280;5069;49.306;8.636;2023-07-30T01:19:39;99989.22;;;20.30;100.00
10060;BME280;5069;49.306;8.636;2023-07-30T01:22:40;99998.97;;;20.31;100.00
10060;BME280;5069;49.306;8.636;2023-07-30T01:25:42;99995.31;;;20.20;100.00
10060;BME280;5069;49.306;8.636;2023-07-30T01:28:48;100006.50;;;20.26;100.00
10060;BME280;5069;49.306;8.636;2023-07-30T01:31:56;100006.72;;;20.11;100.00
10060;BME280;5069;49.306;8.636;2023-07-30T01:34:59;100006.88;;;20.10;100.00
10060;BME280;5069;49.306;8.636;2023-07-30T01:38:02;100015.03;;;20.08;100.00
10060;BME280;5069;49.306;8.636;2023-07-30T01:41:06;100013.69;;;20.14;100.00
10060;BME280;5069;49.306;8.636;2023-07-30T01:44:08;100015.25;;;20.05;100.00
10060;BME280;5069;49.306;8.636;2023-07-30T01:47:10;100017.56;;;19.99;100.00
10060;BME280;5069;49.306;8.636;2023-07-30T01:50:11;100024.84;;;19.97;100.00
10060;BME280;5069;49.306;8.636;2023-07-30T01:53:13;100026.44;;;19.99;100.00
10060;BME280;5069;49.306;8.636;2023-07-30T01:56:16;100029.00;;;20.01;100.00
10060;BME280;5069;49.306;8.636;2023-07-30T01:59:18;100026.69;;;19.96;100.00
10060;BME280;5069;49.306;8.636;2023-07-30T02:02:19;100028.13;;;20.00;100.00
10060;BME280;5069;49.306;8.636;2023-07-30T02:05:21;100025.47;;;20.00;100.00
10060;BME280;5069;49.306;8.636;2023-07-30T02:08:22;100012.72;;;20.04;100.00
10060;BME280;5069;49.306;8.636;2023-07-30T02:11:24;100030.44;;;20.05;100.00
10060;BME280;5069;49.306;8.636;2023-07-30T02:14:26;100022.31;;;20.06;100.00
10060;BME280;5069;49.306;8.636;2023-07-30T02:17:28;100022.56;;;20.03;100.00
10060;BME280;5069;49.306;8.636;2023-07-30T02:20:29;100013.56;;;20.04;100.00
10060;BME280;5069;49.306;8.636;2023-07-30T02:23:30;100010.16;;;20.02;100.00
10060;BME280;5069;49.306;8.636;2023-07-30T02:26:32;100023.78;;;20.10;100.00
10060;BME280;5069;49.306;8.636;2023-07-30T02:29:34;100029.97;;;20.11;100.00
10060;BME280;5069;49.306;8.636;2023-07-30T02:32:36;100022.09;;;20.09;100.00
10060;BME280;5069;49.306;8.636;2023-07-30T02:35:37;100026.44;;;19.99;100.00
10060;BME280;5069;49.306;8.636;2023-07-30T02:38:39;100025.22;;;19.92;100.00
10060;BME280;5069;49.306;8.636;2023-07-30T02:41:40;100018.06;;;19.93;100.00
10060;BME280;5069;49.306;8.636;2023-07-30T02:44:42;100029.84;;;20.01;100.00
10060;BME280;5069;49.306;8.636;2023-07-30T02:47:43;100036.91;;;20.02;100.00
10060;BME280;5069;49.306;8.636;2023-07-30T02:50:45;100024.00;;;20.07;100.00
10060;BME280;5069;49.306;8.636;2023-07-30T02:53:46;100030.34;;;20.06;100.00
10060;BME280;5069;49.306;8.636;2023-07-30T02:56:48;100035.19;;;20.01;100.00
10060;BME280;5069;49.306;8.636;2023-07-30T02:59:49;100037.63;;;19.93;100.00
10060;BME280;5069;49.306;8.636;2023-07-30T03:02:51;100040.41;;;19.92;100.00
10060;BME280;5069;49.306;8.636;2023-07-30T03:05:53;100035.94;;;19.92;100.00
10060;BME280;5069;49.306;8.636;2023-07-30T03:08:54;100019.63;;;19.95;100.00
10060;BME280;5069;49.306;8.636;2023-07-30T03:11:56;100037.88;;;20.01;100.00
10060;BME280;5069;49.306;8.636;2023-07-30T03:14:57;100025.59;;;19.99;100.00
10060;BME280;5069;49.306;8.636;2023-07-30T03:17:59;100030.44;;;20.05;100.00
10060;BME280;5069;49.306;8.636;2023-07-30T03:21:00;100040.53;;;20.01;100.00
10060;BME280;5069;49.306;8.636;2023-07-30T03:24:02;100033.25;;;20.03;100.00
10060;BME280;5069;49.306;8.636;2023-07-30T03:27:03;100036.06;;;20.02;100.00
10060;BME280;5069;49.306;8.636;2023-07-30T03:30:05;100039.09;;;19.97;100.00
10060;BME280;5069;49.306;8.636;2023-07-30T03:33:07;100033.38;;;19.91;100.00
10060;BME280;5069;49.306;8.636;2023-07-30T03:36:11;100032.28;;;19.93;100.00
10060;BME280;5069;49.306;8.636;2023-07-30T03:39:14;100034.44;;;19.88;100.00
10060;BME280;5069;49.306;8.636;2023-07-30T03:42:16;100034.44;;;19.88;100.00
10060;BME280;5069;49.306;8.636;2023-07-30T03:45:17;100035.94;;;19.92;100.00
10060;BME280;5069;49.306;8.636;2023-07-30T03:48:19;100037.38;;;19.96;100.00
10060;BME280;5069;49.306;8.636;2023-07-30T03:51:21;100041.28;;;19.92;100.00
10060;BME280;5069;49.306;8.636;2023-07-30T03:54:24;100045.53;;;19.95;100.00
10060;BME280;5069;49.306;8.636;2023-07-30T03:57:27;100046.38;;;19.95;100.00
10060;BME280;5069;49.306;8.636;2023-07-30T04:00:30;100052.56;;;19.96;100.00
10060;BME280;5069;49.306;8.636;2023-07-30T04:03:32;100060.03;;;20.03;100.00
10060;BME280;5069;49.306;8.636;2023-07-30T04:06:34;100061.94;;;19.90;100.00
10060;BME280;5069;49.306;8.636;2023-07-30T04:09:35;100062.03;;;19.89;100.00
10060;BME280;5069;49.306;8.636;2023-07-30T04:12:37;100062.03;;;19.89;100.00
10060;BME280;5069;49.306;8.636;2023-07-30T04:15:38;100060.72;;;19.94;100.00
10060;BME280;5069;49.306;8.636;2023-07-30T04:18:40;100066.06;;;19.94;100.00
10060;BME280;5069;49.306;8.636;2023-07-30T04:21:41;100066.81;;;19.96;100.00
10060;BME280;5069;49.306;8.636;2023-07-30T04:24:42;100065.22;;;19.94;100.00
10060;BME280;5069;49.306;8.636;2023-07-30T04:27:44;100079.34;;;19.96;100.00
10060;BME280;5069;49.306;8.636;2023-07-30T04:30:46;100078.59;;;19.94;100.00
10060;BME280;5069;49.306;8.636;2023-07-30T04:33:48;100085.41;;;19.87;100.00
10060;BME280;5069;49.306;8.636;2023-07-30T04:36:50;100088.19;;;19.85;100.00
10060;BME280;5069;49.306;8.636;2023-07-30T04:39:52;100101.66;;;19.84;100.00
10060;BME280;5069;49.306;8.636;2023-07-30T04:42:54;100095.25;;;19.86;100.00
10060;BME280;5069;49.306;8.636;2023-07-30T04:45:55;100100.31;;;19.78;100.00
10060;BME280;5069;49.306;8.636;2023-07-30T04:48:58;100104.69;;;19.79;100.00
10060;BME280;5069;49.306;8.636;2023-07-30T04:52:00;100091.81;;;19.84;100.00
10060;BME280;5069;49.306;8.636;2023-07-30T04:55:02;100108.59;;;19.75;100.00
10060;BME280;5069;49.306;8.636;2023-07-30T04:58:03;100095.72;;;19.80;100.00
10060;BME280;5069;49.306;8.636;2023-07-30T05:01:05;100084.56;;;19.86;100.00
10060;BME280;5069;49.306;8.636;2023-07-30T05:04:06;100086.75;;;19.92;100.00
10060;BME280;5069;49.306;8.636;2023-07-30T05:07:08;100091.75;;;19.97;100.00
10060;BME280;5069;49.306;8.636;2023-07-30T05:10:09;100094.31;;;19.98;100.00
10060;BME280;5069;49.306;8.636;2023-07-30T05:13:12;100103.78;;;20.02;100.00
10060;BME280;5069;49.306;8.636;2023-07-30T05:16:14;100105.00;;;19.98;100.00
10060;BME280;5069;49.306;8.636;2023-07-30T05:19:16;100112.53;;;19.93;100.00
10060;BME280;5069;49.306;8.636;2023-07-30T05:22:17;100111.53;;;19.94;100.00
10060;BME280;5069;49.306;8.636;2023-07-30T05:25:19;100114.22;;;19.94;100.00
10060;BME280;5069;49.306;8.636;2023-07-30T05:28:20;100103.31;;;19.97;100.00
10060;BME280;5069;49.306;8.636;2023-07-30T05:31:22;100099.88;;;19.95;100.00
10060;BME280;5069;49.306;8.636;2023-07-30T05:34:24;100096.25;;;19.96;100.00
10060;BME280;5069;49.306;8.636;2023-07-30T05:37:25;100110.59;;;19.95;100.00
10060;BME280;5069;49.306;8.636;2023-07-30T05:40:27;100092.81;;;19.94;100.00
10060;BME280;5069;49.306;8.636;2023-07-30T05:43:28;100094.06;;;20.01;100.00
10060;BME280;5069;49.306;8.636;2023-07-30T05:46:30;100086.78;;;20.03;100.00
10060;BME280;5069;49.306;8.636;2023-07-30T05:49:31;100083.47;;;20.11;100.00
10060;BME280;5069;49.306;8.636;2023-07-30T05:52:33;100077.06;;;20.13;100.00
10060;BME280;5069;49.306;8.636;2023-07-30T05:55:35;100064.53;;;20.25;100.00
10060;BME280;5069;49.306;8.636;2023-07-30T05:58:36;100075.84;;;20.29;100.00
10060;BME280;5069;49.306;8.636;2023-07-30T06:01:37;100071.53;;;20.39;100.00
10060;BME280;5069;49.306;8.636;2023-07-30T06:04:39;100083.44;;;20.46;100.00
10060;BME280;5069;49.306;8.636;2023-07-30T06:07:41;100100.34;;;20.57;100.00
10060;BME280;5069;49.306;8.636;2023-07-30T06:10:42;100094.88;;;20.59;100.00
10060;BME280;5069;49.306;8.636;2023-07-30T06:13:44;100102.44;;;20.54;100.00
10060;BME280;5069;49.306;8.636;2023-07-30T06:16:45;100104.34;;;20.63;100.00
10060;BME280;5069;49.306;8.636;2023-07-30T06:19:47;100114.38;;;20.61;100.00
10060;BME280;5069;49.306;8.636;2023-07-30T06:22:48;100105.81;;;20.45;100.00
10060;BME280;5069;49.306;8.636;2023-07-30T06:25:49;100105.31;;;20.40;100.00
10060;BME280;5069;49.306;8.636;2023-07-30T06:28:51;100101.19;;;20.36;100.00
10060;BME280;5069;49.306;8.636;2023-07-30T06:31:52;100099.00;;;20.52;100.00
10060;BME280;5069;49.306;8.636;2023-07-30T06:34:54;100104.63;;;20.71;100.00
10060;BME280;5069;49.306;8.636;2023-07-30T06:37:55;100094.09;;;20.90;100.00
10060;BME280;5069;49.306;8.636;2023-07-30T06:40:57;100101.41;;;20.99;100.00
10060;BME280;5069;49.306;8.636;2023-07-30T06:43:59;100101.03;;;21.04;100.00
10060;BME280;5069;49.306;8.636;2023-07-30T06:47:00;100114.91;;;21.09;100.00
10060;BME280;5069;49.306;8.636;2023-07-30T06:50:03;100121.63;;;21.15;100.00
10060;BME280;5069;49.306;8.636;2023-07-30T06:53:05;100125.63;;;20.98;100.00
10060;BME280;5069;49.306;8.636;2023-07-30T06:56:06;100130.50;;;21.04;100.00
10060;BME280;5069;49.306;8.636;2023-07-30T06:59:08;100130.63;;;21.02;100.00
10060;BME280;5069;49.306;8.636;2023-07-30T07:02:09;100133.94;;;21.06;100.00
10060;BME280;5069;49.306;8.636;2023-07-30T07:05:10;100125.03;;;21.06;100.00
10060;BME280;5069;49.306;8.636;2023-07-30T07:08:12;100125.53;;;20.99;100.00
10060;BME280;5069;49.306;8.636;2023-07-30T07:11:13;100130.63;;;20.91;100.00
10060;BME280;5069;49.306;8.636;2023-07-30T07:14:15;100148.22;;;20.84;100.00
10060;BME280;5069;49.306;8.636;2023-07-30T07:17:16;100148.06;;;20.75;100.00
10060;BME280;5069;49.306;8.636;2023-07-30T07:20:18;100151.38;;;20.67;100.00
10060;BME280;5069;49.306;8.636;2023-07-30T07:23:19;100147.94;;;20.54;100.00
10060;BME280;5069;49.306;8.636;2023-07-30T07:26:21;100150.38;;;20.46;100.00
10060;BME280;5069;49.306;8.636;2023-07-30T07:29:22;100154.00;;;20.45;100.00
10060;BME280;5069;49.306;8.636;2023-07-30T07:32:24;100159.13;;;20.48;100.00
10060;BME280;5069;49.306;8.636;2023-07-30T07:35:25;100164.00;;;20.54;100.00
10060;BME280;5069;49.306;8.636;2023-07-30T07:38:27;100162.78;;;20.58;100.00
10060;BME280;5069;49.306;8.636;2023-07-30T07:41:28;100162.41;;;20.51;100.00
10060;BME280;5069;49.306;8.636;2023-07-30T07:44:29;100166.41;;;20.35;100.00
10060;BME280;5069;49.306;8.636;2023-07-30T07:47:31;100153.78;;;20.48;100.00
10060;BME280;5069;49.306;8.636;2023-07-30T07:50:33;100158.66;;;20.43;100.00
10060;BME280;5069;49.306;8.636;2023-07-30T07:53:35;100151.47;;;20.43;100.00
10060;BME280;5069;49.306;8.636;2023-07-30T07:56:36;100158.16;;;20.38;100.00
10060;BME280;5069;49.306;8.636;2023-07-30T07:59:38;100155.13;;;20.42;100.00
10060;BME280;5069;49.306;8.636;2023-07-30T08:02:39;100156.94;;;20.53;100.00
10060;BME280;5069;49.306;8.636;2023-07-30T08:05:41;100165.09;;;20.62;100.00
10060;BME280;5069;49.306;8.636;2023-07-30T08:08:42;100171.94;;;20.78;100.00
10060;BME280;5069;49.306;8.636;2023-07-30T08:11:43;100170.59;;;20.94;100.00
10060;BME280;5069;49.306;8.636;2023-07-30T08:14:45;100168.50;;;21.09;100.00
10060;BME280;5069;49.306;8.636;2023-07-30T08:17:46;100184.00;;;21.06;100.00
10060;BME280;5069;49.306;8.636;2023-07-30T08:20:49;100179.72;;;21.03;100.00
10060;BME280;5069;49.306;8.636;2023-07-30T08:23:51;100173.28;;;21.17;100.00
10060;BME280;5069;49.306;8.636;2023-07-30T08:26:52;100182.78;;;21.21;100.00
10060;BME280;5069;49.306;8.636;2023-07-30T08:29:54;100177.41;;;21.32;100.00
10060;BME280;5069;49.306;8.636;2023-07-30T08:32:55;100181.19;;;21.29;100.00
10060;BME280;5069;49.306;8.636;2023-07-30T08:35:57;100170.75;;;21.58;100.00
10060;BME280;5069;49.306;8.636;2023-07-30T08:38:58;100171.84;;;21.56;100.00
10060;BME280;5069;49.306;8.636;2023-07-30T08:42:00;100178.06;;;21.56;100.00
10060;BME280;5069;49.306;8.636;2023-07-30T08:45:05;100170.06;;;21.77;100.00
10060;BME280;5069;49.306;8.636;2023-07-30T08:48:07;100171.69;;;21.68;100.00
10060;BME280;5069;49.306;8.636;2023-07-30T08:51:11;100168.44;;;21.97;100.00
10060;BME280;5069;49.306;8.636;2023-07-30T08:54:14;100169.81;;;22.12;100.00
10060;BME280;5069;49.306;8.636;2023-07-30T08:57:17;100171.59;;;22.22;100.00
10060;BME280;5069;49.306;8.636;2023-07-30T09:00:23;100177.66;;;22.45;100.00
10060;BME280;5069;49.306;8.636;2023-07-30T09:03:26;100180.81;;;22.50;100.00
10060;BME280;5069;49.306;8.636;2023-07-30T09:06:28;100183.56;;;22.39;100.00
10060;BME280;5069;49.306;8.636;2023-07-30T09:09:30;100206.22;;;22.46;98.97
10060;BME280;5069;49.306;8.636;2023-07-30T09:12:33;100199.84;;;22.38;97.66
10060;BME280;5069;49.306;8.636;2023-07-30T09:15:36;100198.00;;;22.38;95.04
10060;BME280;5069;49.306;8.636;2023-07-30T09:18:43;100198.75;;;22.50;94.52
10060;BME280;5069;49.306;8.636;2023-07-30T09:21:45;100199.75;;;22.49;91.27
10060;BME280;5069;49.306;8.636;2023-07-30T09:24:46;100209.81;;;22.56;88.29
10060;BME280;5069;49.306;8.636;2023-07-30T09:27:51;100196.66;;;22.53;87.98
10060;BME280;5069;49.306;8.636;2023-07-30T09:31:02;100204.97;;;22.50;91.39
10060;BME280;5069;49.306;8.636;2023-07-30T09:34:23;100203.06;;;22.62;90.48
10060;BME280;5069;49.306;8.636;2023-07-30T09:37:24;100208.56;;;22.72;91.07
10060;BME280;5069;49.306;8.636;2023-07-30T09:40:36;100209.59;;;22.90;88.34
10060;BME280;5069;49.306;8.636;2023-07-30T09:43:38;100211.59;;;22.88;84.22
10060;BME280;5069;49.306;8.636;2023-07-30T09:46:47;100211.72;;;22.86;86.07
10060;BME280;5069;49.306;8.636;2023-07-30T09:49:49;100212.78;;;22.95;84.68
10060;BME280;5069;49.306;8.636;2023-07-30T09:52:51;100215.06;;;23.09;84.09
10060;BME280;5069;49.306;8.636;2023-07-30T09:55:52;100215.38;;;23.06;83.42
10060;BME280;5069;49.306;8.636;2023-07-30T09:58:55;100223.75;;;22.82;84.84
10060;BME280;5069;49.306;8.636;2023-07-30T10:01:58;100220.41;;;22.48;87.01
10060;BME280;5069;49.306;8.636;2023-07-30T10:05:00;100234.41;;;22.31;94.83
10060;BME280;5069;49.306;8.636;2023-07-30T10:08:06;100232.47;;;22.01;99.24
10060;BME280;5069;49.306;8.636;2023-07-30T10:11:11;100245.53;;;21.83;100.00
10060;BME280;5069;49.306;8.636;2023-07-30T10:14:14;100240.19;;;21.83;98.49
10060;BME280;5069;49.306;8.636;2023-07-30T10:17:17;100248.03;;;21.75;98.98
10060;BME280;5069;49.306;8.636;2023-07-30T10:20:26;100244.06;;;22.02;93.95
10060;BME280;5069;49.306;8.636;2023-07-30T10:23:28;100246.97;;;22.51;93.61
10060;BME280;5069;49.306;8.636;2023-07-30T10:26:32;100252.31;;;22.83;89.46
10060;BME280;5069;49.306;8.636;2023-07-30T10:29:35;100258.72;;;22.92;82.89
10060;BME280;5069;49.306;8.636;2023-07-30T10:33:01;100252.09;;;23.26;81.21
10060;BME280;5069;49.306;8.636;2023-07-30T10:36:04;100245.38;;;23.11;77.54
10060;BME280;5069;49.306;8.636;2023-07-30T10:39:13;100255.53;;;23.07;79.08
10060;BME280;5069;49.306;8.636;2023-07-30T10:42:15;100255.25;;;23.01;77.77
10060;BME280;5069;49.306;8.636;2023-07-30T10:45:25;100256.72;;;23.15;72.73
10060;BME280;5069;49.306;8.636;2023-07-30T10:48:38;100251.63;;;23.12;68.92
10060;BME280;5069;49.306;8.636;2023-07-30T10:51:40;100254.38;;;23.31;66.70
10060;BME280;5069;49.306;8.636;2023-07-30T10:54:42;100256.16;;;23.21;68.25
10060;BME280;5069;49.306;8.636;2023-07-30T10:57:45;100257.38;;;23.07;68.93
10060;BME280;5069;49.306;8.636;2023-07-30T11:00:49;100263.38;;;22.90;69.05
10060;BME280;5069;49.306;8.636;2023-07-30T11:03:50;100263.94;;;22.84;66.14
10060;BME280;5069;49.306;8.636;2023-07-30T11:06:53;100267.06;;;22.89;65.07
10060;BME280;5069;49.306;8.636;2023-07-30T11:09:59;100268.22;;;23.26;62.55
10060;BME280;5069;49.306;8.636;2023-07-30T11:13:04;100267.06;;;23.50;59.40
10060;BME280;5069;49.306;8.636;2023-07-30T11:16:15;100278.47;;;23.72;58.71
10060;BME280;5069;49.306;8.636;2023-07-30T11:19:17;100279.63;;;23.89;56.71
10060;BME280;5069;49.306;8.636;2023-07-30T11:22:29;100278.09;;;23.96;54.94
10060;BME280;5069;49.306;8.636;2023-07-30T11:25:32;100285.78;;;23.61;54.17
10060;BME280;5069;49.306;8.636;2023-07-30T11:28:37;100275.34;;;23.77;56.89
10060;BME280;5069;49.306;8.636;2023-07-30T11:31:39;100295.81;;;24.08;56.90
10060;BME280;5069;49.306;8.636;2023-07-30T11:34:41;100297.63;;;23.98;55.32
10060;BME280;5069;49.306;8.636;2023-07-30T11:37:45;100305.16;;;24.04;57.05
10060;BME280;5069;49.306;8.636;2023-07-30T11:40:47;100293.81;;;24.10;56.23
10060;BME280;5069;49.306;8.636;2023-07-30T11:43:48;100298.59;;;23.87;55.35
10060;BME280;5069;49.306;8.636;2023-07-30T11:46:54;100290.38;;;23.79;54.89
10060;BME280;5069;49.306;8.636;2023-07-30T11:49:58;100288.69;;;23.88;55.37
10060;BME280;5069;49.306;8.636;2023-07-30T11:53:00;100292.41;;;24.06;53.38
10060;BME280;5069;49.306;8.636;2023-07-30T11:56:02;100310.22;;;23.88;52.48
10060;BME280;5069;49.306;8.636;2023-07-30T11:59:07;100315.13;;;24.23;49.96
10060;BME280;5069;49.306;8.636;2023-07-30T12:02:08;100321.25;;;24.35;48.55
10060;BME280;5069;49.306;8.636;2023-07-30T12:05:11;100316.00;;;24.52;48.57
10060;BME280;5069;49.306;8.636;2023-07-30T12:08:16;100329.97;;;24.17;48.83
10060;BME280;5069;49.306;8.636;2023-07-30T12:11:18;100326.56;;;23.96;48.76
10060;BME280;5069;49.306;8.636;2023-07-30T12:14:42;100324.72;;;24.06;48.84
10060;BME280;5069;49.306;8.636;2023-07-30T12:17:44;100343.56;;;24.06;50.32
10060;BME280;5069;49.306;8.636;2023-07-30T12:20:47;100336.34;;;24.07;49.44
10060;BME280;5069;49.306;8.636;2023-07-30T12:23:49;100339.75;;;24.09;50.10
10060;BME280;5069;49.306;8.636;2023-07-30T12:26:50;100344.06;;;24.31;49.51
10060;BME280;5069;49.306;8.636;2023-07-30T12:29:56;100348.91;;;24.46;48.23
10060;BME280;5069;49.306;8.636;2023-07-30T12:32:57;100342.94;;;24.43;47.07
10060;BME280;5069;49.306;8.636;2023-07-30T12:35:59;100355.72;;;24.60;46.28
10060;BME280;5069;49.306;8.636;2023-07-30T12:39:01;100355.41;;;24.63;46.21
10060;BME280;5069;49.306;8.636;2023-07-30T12:42:02;100346.91;;;24.39;46.38
10060;BME280;5069;49.306;8.636;2023-07-30T12:45:04;100353.28;;;24.57;45.58
10060;BME280;5069;49.306;8.636;2023-07-30T12:48:06;100348.19;;;24.25;46.32
10060;BME280;5069;49.306;8.636;2023-07-30T12:51:09;100341.59;;;24.08;47.78
10060;BME280;5069;49.306;8.636;2023-07-30T12:54:11;100352.75;;;24.04;47.21
10060;BME280;5069;49.306;8.636;2023-07-30T12:57:12;100345.53;;;23.95;47.58
10060;BME280;5069;49.306;8.636;2023-07-30T13:00:14;100339.91;;;24.07;47.60
10060;BME280;5069;49.306;8.636;2023-07-30T13:03:16;100359.66;;;24.27;47.25
10060;BME280;5069;49.306;8.636;2023-07-30T13:06:17;100356.69;;;24.20;47.13
10060;BME280;5069;49.306;8.636;2023-07-30T13:09:19;100349.47;;;24.31;45.72
10060;BME280;5069;49.306;8.636;2023-07-30T13:12:21;100363.78;;;24.31;44.22
10060;BME280;5069;49.306;8.636;2023-07-30T13:15:22;100362.97;;;24.00;44.90
10060;BME280;5069;49.306;8.636;2023-07-30T13:18:24;100360.56;;;23.97;45.33
10060;BME280;5069;49.306;8.636;2023-07-30T13:21:25;100365.78;;;23.89;45.35
10060;BME280;5069;49.306;8.636;2023-07-30T13:24:27;100361.13;;;24.01;45.04
10060;BME280;5069;49.306;8.636;2023-07-30T13:27:31;100373.00;;;23.98;44.71
10060;BME280;5069;49.306;8.636;2023-07-30T13:30:33;100371.56;;;24.44;43.91
10060;BME280;5069;49.306;8.636;2023-07-30T13:33:34;100376.69;;;24.37;44.24
10060;BME280;5069;49.306;8.636;2023-07-30T13:36:36;100373.00;;;24.38;44.64
10060;BME280;5069;49.306;8.636;2023-07-30T13:39:38;100382.22;;;24.55;44.92
10060;BME280;5069;49.306;8.636;2023-07-30T13:42:39;100375.53;;;24.40;44.85
10060;BME280;5069;49.306;8.636;2023-07-30T13:45:41;100376.41;;;24.31;45.76
10060;BME280;5069;49.306;8.636;2023-07-30T13:48:43;100373.44;;;24.62;44.24
10060;BME280;5069;49.306;8.636;2023-07-30T13:51:44;100376.97;;;24.44;44.34
10060;BME280;5069;49.306;8.636;2023-07-30T13:54:45;100388.91;;;24.01;45.78
10060;BME280;5069;49.306;8.636;2023-07-30T13:57:47;100383.31;;;23.83;46.48
10060;BME280;5069;49.306;8.636;2023-07-30T14:00:53;100381.06;;;23.48;46.23
10060;BME280;5069;49.306;8.636;2023-07-30T14:03:55;100392.16;;;23.34;46.69
10060;BME280;5069;49.306;8.636;2023-07-30T14:06:56;100385.31;;;23.30;47.07
10060;BME280;5069;49.306;8.636;2023-07-30T14:09:58;100396.88;;;23.21;47.06
10060;BME280;5069;49.306;8.636;2023-07-30T14:12:59;100397.91;;;23.09;47.28
10060;BME280;5069;49.306;8.636;2023-07-30T14:16:02;100396.47;;;23.05;47.88
10060;BME280;5069;49.306;8.636;2023-07-30T14:19:03;100395.44;;;23.17;47.71
10060;BME280;5069;49.306;8.636;2023-07-30T14:22:05;100401.25;;;23.43;47.83
10060;BME280;5069;49.306;8.636;2023-07-30T14:25:07;100399.47;;;23.83;46.67
10060;BME280;5069;49.306;8.636;2023-07-30T14:28:08;100394.56;;;24.48;46.76
10060;BME280;5069;49.306;8.636;2023-07-30T14:31:10;100400.22;;;24.25;45.91
10060;BME280;5069;49.306;8.636;2023-07-30T14:34:12;100400.97;;;23.97;46.54
10060;BME280;5069;49.306;8.636;2023-07-30T14:37:14;100390.78;;;23.70;47.32
10060;BME280;5069;49.306;8.636;2023-07-30T14:40:15;100404.00;;;23.53;46.03
10060;BME280;5069;49.306;8.636;2023-07-30T14:43:17;100408.34;;;23.44;45.63
10060;BME280;5069;49.306;8.636;2023-07-30T14:46:18;100404.28;;;23.80;44.20
10060;BME280;5069;49.306;8.636;2023-07-30T14:49:20;100399.50;;;23.93;44.65
10060;BME280;5069;49.306;8.636;2023-07-30T14:52:21;100407.16;;;24.28;44.09
10060;BME280;5069;49.306;8.636;2023-07-30T14:55:23;100406.59;;;24.34;43.85
10060;BME280;5069;49.306;8.636;2023-07-30T14:58:24;100399.25;;;24.36;43.51
10060;BME280;5069;49.306;8.636;2023-07-30T15:01:28;100394.72;;;24.65;43.01
10060;BME280;5069;49.306;8.636;2023-07-30T15:04:30;100411.88;;;24.74;44.05
10060;BME280;5069;49.306;8.636;2023-07-30T15:07:32;100401.47;;;24.21;44.06
10060;BME280;5069;49.306;8.636;2023-07-30T15:10:33;100413.25;;;24.20;45.00
10060;BME280;5069;49.306;8.636;2023-07-30T15:13:35;100407.91;;;24.78;42.99
10060;BME280;5069;49.306;8.636;2023-07-30T15:16:36;100411.06;;;24.83;42.68
10060;BME280;5069;49.306;8.636;2023-07-30T15:19:38;100402.22;;;24.43;43.71
10060;BME280;5069;49.306;8.636;2023-07-30T15:22:40;100403.88;;;24.24;43.76
10060;BME280;5069;49.306;8.636;2023-07-30T15:25:41;100405.69;;;24.14;43.16
10060;BME280;5069;49.306;8.636;2023-07-30T15:31:44;100404.28;;;23.80;44.85
10060;BME280;5069;49.306;8.636;2023-07-30T15:34:46;100404.56;;;23.77;44.93
10060;BME280;5069;49.306;8.636;2023-07-30T15:37:47;100404.63;;;24.36;44.89
10060;BME280;5069;49.306;8.636;2023-07-30T15:40:49;100400.09;;;24.56;43.30
10060;BME280;5069;49.306;8.636;2023-07-30T15:43:51;100392.63;;;24.88;40.85
10060;BME280;5069;49.306;8.636;2023-07-30T15:46:53;100392.31;;;25.10;40.58
10060;BME280;5069;49.306;8.636;2023-07-30T15:49:54;100392.25;;;25.30;40.15
10060;BME280;5069;49.306;8.636;2023-07-30T15:52:56;100396.25;;;25.26;41.08
10060;BME280;5069;49.306;8.636;2023-07-30T15:56:01;100391.44;;;24.52;39.86
10060;BME280;5069;49.306;8.636;2023-07-30T15:59:04;100402.38;;;24.01;41.54
10060;BME280;5069;49.306;8.636;2023-07-30T16:02:06;100413.06;;;23.82;41.29